Time;durP1;ratioP1;P1;durP2;ratioP2;P2;SDS_P1;SDS_P2;PMS_P1;PMS_P2;Temp;Humidity;BMP_temperature;BMP_pressure;BME280_temperature;BME280_humidity;BME280_pressure;Samples;Min_cycle;Max_cycle;Signal;HPM_P1;HPM_P2
2022/05/04 00:02:05;;;;;;;5.05;3.40;;;;;;;14.35;63.89;101018.53;5013498;28;103902;-47
2022/05/04 00:04:33;;;;;;;4.85;3.60;;;;;;;14.35;63.91;101018.53;5003266;28;102324;-46
2022/05/04 00:07:00;;;;;;;4.87;3.60;;;;;;;14.36;63.95;101031.16;4994916;28;102407;-47
2022/05/04 00:09:27;;;;;;;3.50;3.20;;;;;;;14.35;63.80;101029.50;5003353;28;102125;-48
2022/05/04 00:11:55;;;;;;;4.15;3.67;;;;;;;14.35;63.91;101037.72;4993255;28;103864;-48
2022/05/04 00:14:25;;;;;;;5.38;3.95;;;;;;;14.36;64.11;101036.63;4994184;28;102391;-47
2022/05/04 00:16:51;;;;;;;5.00;4.13;;;;;;;14.35;63.74;101035.81;4993225;28;102482;-47
2022/05/04 00:19:18;;;;;;;3.90;3.47;;;;;;;14.35;63.98;101040.44;5005867;28;102040;-48
2022/05/04 00:21:46;;;;;;;4.40;3.20;;;;;;;14.35;63.81;101046.75;5004316;28;104016;-47
2022/05/04 00:24:16;;;;;;;5.40;3.20;;;;;;;14.36;64.00;101042.09;5005598;28;101922;-48
2022/05/04 00:26:42;;;;;;;4.78;3.60;;;;;;;14.35;63.94;101040.44;5006054;28;102171;-48
2022/05/04 00:29:09;;;;;;;4.68;3.75;;;;;;;14.35;63.64;101043.19;5010280;28;102625;-47
2022/05/04 00:31:35;;;;;;;4.18;3.35;;;;;;;14.35;63.92;101048.66;5011655;28;103990;-47
2022/05/04 00:34:02;;;;;;;4.53;3.67;;;;;;;14.34;63.70;101034.16;5012318;28;102336;-47
2022/05/04 00:36:28;;;;;;;4.93;3.63;;;;;;;14.35;63.97;101037.72;5011501;28;102226;-48
2022/05/04 00:39:00;;;;;;;3.47;3.17;;;;;;;14.35;63.91;101029.50;5007076;28;102779;-47
2022/05/04 00:41:26;;;;;;;4.40;3.53;;;;;;;14.34;63.79;101028.69;4991288;28;103861;-48
2022/05/04 00:43:54;;;;;;;5.28;3.40;;;;;;;14.35;64.01;101024.03;4991922;28;102041;-46
2022/05/04 00:46:22;;;;;;;4.00;3.42;;;;;;;14.34;63.99;101027.88;4992465;28;102570;-46
2022/05/04 00:48:48;;;;;;;4.17;3.40;;;;;;;14.35;63.59;101022.13;5002434;28;102540;-47
2022/05/04 00:51:16;;;;;;;4.13;3.67;;;;;;;14.34;63.98;101019.66;4999133;28;103886;-47
2022/05/04 00:53:44;;;;;;;5.38;3.55;;;;;;;14.35;63.78;101018.53;4997256;28;102219;-46
2022/05/04 00:56:12;;;;;;;4.37;3.77;;;;;;;14.35;64.04;101026.75;5000312;28;102276;-47
2022/05/04 00:58:58;;;;;;;5.10;3.30;;;;;;;14.35;63.86;101029.50;5010244;28;102748;-46
2022/05/04 01:01:29;;;;;;;3.70;3.30;;;;;;;14.33;63.99;101031.72;4993235;28;104061;-47
2022/05/04 01:03:57;;;;;;;3.65;3.33;;;;;;;14.35;64.03;101034.97;4992154;28;102150;-47
2022/05/04 01:06:25;;;;;;;3.50;3.20;;;;;;;14.34;63.91;101033.34;4991552;28;102078;-47
2022/05/04 01:08:53;;;;;;;4.47;3.80;;;;;;;14.34;63.81;101027.88;4996588;28;102128;-46
2022/05/04 01:11:23;;;;;;;4.13;3.53;;;;;;;14.33;64.02;101024.31;5006574;28;104020;-46
2022/05/04 01:13:59;;;;;;;3.40;3.10;;;;;;;14.35;64.10;101018.53;4996037;28;102236;-47
2022/05/04 01:16:26;;;;;;;3.55;3.00;;;;;;;14.35;64.22;101024.03;4991209;28;102651;-47
2022/05/04 01:18:52;;;;;;;4.22;3.83;;;;;;;14.34;64.04;101025.94;4995389;28;102540;-47
2022/05/04 01:21:19;;;;;;;3.50;3.10;;;;;;;14.34;64.10;101016.91;5002032;28;103928;-46
2022/05/04 01:23:48;;;;;;;4.00;3.60;;;;;;;14.34;64.09;101016.91;5011060;28;102165;-47
2022/05/04 01:26:17;;;;;;;4.37;3.40;;;;;;;14.34;64.09;101014.19;5002439;28;102315;-48
2022/05/04 01:28:44;;;;;;;3.40;2.95;;;;;;;14.35;63.83;101013.06;4992382;28;102329;-49
2022/05/04 01:31:11;;;;;;;4.50;3.50;;;;;;;14.34;63.98;101012.25;4939991;28;1469392;-47
2022/05/04 01:33:38;;;;;;;3.47;2.92;;;;;;;14.34;64.16;101014.19;4992563;28;101954;-46
2022/05/04 01:36:04;;;;;;;3.78;3.38;;;;;;;14.34;63.90;101014.19;4992710;28;102026;-47
2022/05/04 01:38:31;;;;;;;4.20;3.20;;;;;;;14.35;64.15;101018.53;5010184;28;102412;-46
2022/05/04 01:40:59;;;;;;;3.70;3.40;;;;;;;14.34;63.83;101014.19;4994520;28;104191;-44
2022/05/04 01:43:26;;;;;;;3.70;3.30;;;;;;;14.34;63.98;101016.91;4992570;28;102310;-47
2022/05/04 01:45:52;;;;;;;3.85;3.30;;;;;;;14.35;64.03;101018.53;4992493;28;102297;-47
2022/05/04 01:48:19;;;;;;;3.88;3.35;;;;;;;14.34;64.11;101023.22;4993266;28;102482;-48
2022/05/04 01:50:46;;;;;;;5.28;3.38;;;;;;;14.34;64.25;101016.91;5009887;28;103918;-47
2022/05/04 01:53:14;;;;;;;5.55;3.40;;;;;;;14.34;64.05;101014.19;5012567;28;102381;-47
2022/05/04 01:55:49;;;;;;;4.97;3.40;;;;;;;14.34;64.36;101017.72;5011188;28;102001;-47
2022/05/04 01:58:16;;;;;;;3.42;3.13;;;;;;;14.33;64.14;101012.56;5013125;28;102728;-46
2022/05/04 02:00:43;;;;;;;3.50;3.20;;;;;;;14.34;64.42;101016.91;4992305;28;103897;-48
2022/05/04 02:03:09;;;;;;;3.92;3.53;;;;;;;14.34;64.11;101019.66;4992201;28;102073;-48
2022/05/04 02:05:36;;;;;;;3.50;3.10;;;;;;;14.34;64.05;101022.41;5010307;28;102701;-46
2022/05/04 02:08:03;;;;;;;3.50;3.20;;;;;;;14.33;64.17;101020.78;5013160;28;102326;-47
2022/05/04 02:10:32;;;;;;;3.50;3.20;;;;;;;14.34;64.25;101022.41;4995162;28;104087;-47
2022/05/04 02:13:00;;;;;;;4.47;3.28;;;;;;;14.33;64.33;101021.59;4991645;28;101918;-47
2022/05/04 02:15:28;;;;;;;3.83;3.25;;;;;;;14.34;64.30;101016.91;4991516;28;102046;-47
2022/05/04 02:17:54;;;;;;;4.97;3.38;;;;;;;14.34;64.42;101025.13;4993077;28;102167;-47
2022/05/04 02:20:22;;;;;;;3.92;3.30;;;;;;;14.34;64.30;101027.88;4993806;28;103837;-47
2022/05/04 02:22:49;;;;;;;4.30;3.28;;;;;;;14.35;64.35;101026.75;4992079;28;102266;-47
2022/05/04 02:25:15;;;;;;;4.65;3.58;;;;;;;14.34;64.04;101019.66;4992002;28;101939;-47
2022/05/04 02:27:43;;;;;;;3.95;3.55;;;;;;;14.33;64.30;101026.25;5000605;28;102644;-46
2022/05/04 02:30:10;;;;;;;3.47;3.17;;;;;;;14.35;64.37;101029.50;5004913;28;103916;-47
2022/05/04 02:32:38;;;;;;;3.67;3.38;;;;;;;14.34;64.16;101030.59;5012024;28;102268;-47
2022/05/04 02:37:54;;;;;;;3.95;3.17;;;;;;;14.34;64.13;101030.59;5012152;28;102315;-47
2022/05/04 02:40:21;;;;;;;4.05;3.30;;;;;;;14.33;64.38;101027.06;5009562;28;103863;-47
2022/05/04 02:42:47;;;;;;;3.80;3.38;;;;;;;14.34;64.25;101027.88;5011819;28;102267;-48
2022/05/04 02:45:17;;;;;;;3.40;3.10;;;;;;;14.33;64.27;101023.50;4997539;28;101965;-46
2022/05/04 02:47:45;;;;;;;3.95;3.60;;;;;;;14.34;64.28;101027.88;5005108;28;102114;-47
2022/05/04 02:50:11;;;;;;;5.43;3.38;;;;;;;14.34;64.03;101027.88;4999272;28;103970;-44
2022/05/04 02:52:38;;;;;;;4.20;3.00;;;;;;;14.34;64.48;101044.31;5000038;28;102102;-47
2022/05/04 02:55:06;;;;;;;3.30;3.00;;;;;;;14.32;64.25;101025.44;4997862;28;101951;-48
2022/05/04 02:57:33;;;;;;;43.85;16.15;;;;;;;14.34;64.12;101038.81;5012266;28;102615;-47
2022/05/04 02:59:59;;;;;;;3.50;3.20;;;;;;;14.33;64.27;101037.19;5009359;28;103747;-47
2022/05/04 03:02:29;;;;;;;4.45;3.35;;;;;;;14.33;64.51;101037.19;5006851;28;101935;-47
2022/05/04 03:04:59;;;;;;;4.47;3.42;;;;;;;14.33;64.54;101038.00;4991374;28;101894;-47
2022/05/04 03:07:26;;;;;;;4.07;3.55;;;;;;;14.33;64.19;101038.00;4992070;28;102543;-48
2022/05/04 03:09:53;;;;;;;3.85;3.33;;;;;;;14.33;64.42;101037.19;4999627;28;103889;-47
2022/05/04 03:12:22;;;;;;;;;;;;;;;14.33;64.39;101042.69;4991770;28;102355;-47
2022/05/04 03:14:48;;;;;;;4.68;3.72;;;;;;;14.33;64.18;101040.75;4999795;28;101918;-47
2022/05/04 03:17:16;;;;;;;4.10;3.45;;;;;;;14.32;64.25;101046.53;5011814;28;102184;-47
2022/05/04 03:19:42;;;;;;;3.80;3.47;;;;;;;14.33;64.10;101045.41;4994949;28;103759;-47
2022/05/04 03:22:10;;;;;;;3.67;3.00;;;;;;;14.33;64.39;101053.63;4991644;28;102438;-46
2022/05/04 03:24:38;;;;;;;4.55;3.15;;;;;;;14.33;64.23;101050.88;4990644;28;102350;-47
2022/05/04 03:27:05;;;;;;;3.80;3.13;;;;;;;14.33;64.23;101042.69;4997811;28;102248;-47
2022/05/04 03:29:33;;;;;;;3.55;3.25;;;;;;;14.33;64.57;101037.19;4989929;28;103943;-47
2022/05/04 03:31:59;;;;;;;3.58;2.90;;;;;;;14.32;64.41;101036.38;4991042;28;102634;-48
2022/05/04 03:34:26;;;;;;;3.53;3.00;;;;;;;14.33;64.27;101037.19;5009718;28;102042;-47
2022/05/04 03:36:54;;;;;;;3.40;3.10;;;;;;;14.33;64.28;101042.69;5006369;28;102298;-47
2022/05/04 03:39:22;;;;;;;3.20;2.90;;;;;;;14.33;64.23;101043.47;4989668;28;103914;-47
2022/05/04 03:41:49;;;;;;;4.07;3.60;;;;;;;14.33;64.27;101048.16;4991599;28;102398;-48
2022/05/04 03:44:16;;;;;;;4.47;3.22;;;;;;;14.33;64.22;101042.69;4994178;28;102391;-47
2022/05/04 03:46:44;;;;;;;3.60;3.30;;;;;;;14.33;64.45;101045.41;5011520;28;102245;-52
2022/05/04 03:49:11;;;;;;;3.70;2.95;;;;;;;14.33;64.30;101043.47;5005718;28;103900;-46
2022/05/04 03:51:38;;;;;;;5.10;3.50;;;;;;;14.32;64.44;101036.38;4991144;28;102004;-47
2022/05/04 03:54:04;;;;;;;3.38;3.08;;;;;;;14.33;64.10;101031.72;4990572;28;102544;-48
2022/05/04 03:56:33;;;;;;;5.93;3.22;;;;;;;14.32;64.31;101033.66;4991850;28;102254;-46
2022/05/04 03:58:59;;;;;;;3.25;3.00;;;;;;;14.32;64.14;101033.66;4990325;28;103890;-46
2022/05/04 04:01:26;;;;;;;3.90;3.45;;;;;;;14.32;64.42;101039.13;5007605;28;102276;-48
2022/05/04 04:03:52;;;;;;;3.47;3.17;;;;;;;14.33;64.11;101037.19;4990153;28;102128;-47
2022/05/04 04:06:19;;;;;;;3.78;3.30;;;;;;;14.33;64.12;101045.41;4998350;28;102135;-47
2022/05/04 04:08:45;;;;;;;4.03;3.55;;;;;;;14.32;64.35;101030.91;5009537;28;103885;-47
2022/05/04 04:11:12;;;;;;;5.15;3.95;;;;;;;14.32;64.17;101041.06;4998338;28;102532;-49
2022/05/04 04:13:40;;;;;;;4.35;3.17;;;;;;;14.33;64.28;101042.69;4990022;28;102766;-47
2022/05/04 04:16:07;;;;;;;3.92;3.35;;;;;;;14.32;64.12;101044.59;4991866;28;102279;-47
2022/05/04 04:18:33;;;;;;;5.20;3.38;;;;;;;14.31;63.69;101042.94;4989573;28;103761;-46
2022/05/04 04:23:45;;;;;;;3.88;3.13;;;;;;;14.31;64.02;101037.47;5011180;28;102659;-47
2022/05/04 04:26:13;;;;;;;4.05;3.38;;;;;;;14.32;63.78;101047.34;5012549;28;102486;-47
2022/05/04 04:28:41;;;;;;;3.95;3.60;;;;;;;14.32;63.84;101043.78;4998785;28;103705;-46
2022/05/04 04:31:11;;;;;;;3.63;3.22;;;;;;;14.32;63.94;101036.38;4999913;28;102019;-47
2022/05/04 04:33:38;;;;;;;3.65;3.35;;;;;;;14.33;63.75;101042.69;4992962;28;102449;-47
2022/05/04 04:36:05;;;;;;;4.15;3.38;;;;;;;14.33;63.93;101037.19;4994666;28;102422;-47
2022/05/04 04:38:32;;;;;;;5.63;3.40;;;;;;;14.33;64.01;101043.47;5010530;28;103970;-47
2022/05/04 04:40:59;;;;;;;3.35;3.05;;;;;;;14.34;64.14;101044.31;4997705;28;102283;-47
2022/05/04 04:43:25;;;;;;;3.70;3.22;;;;;;;14.33;63.81;101034.47;4993049;28;101977;-46
2022/05/04 04:45:53;;;;;;;3.50;3.20;;;;;;;14.33;63.80;101037.19;4994488;28;102500;-45
2022/05/04 04:48:21;;;;;;;4.32;3.22;;;;;;;14.34;63.82;101034.16;4999314;28;104031;-45
2022/05/04 04:50:48;;;;;;;4.25;3.33;;;;;;;14.34;64.06;101036.09;5002814;28;102404;-48
2022/05/04 04:53:16;;;;;;;4.47;3.38;;;;;;;14.34;63.80;101041.56;5003212;27;102417;-48
2022/05/04 04:55:44;;;;;;;3.22;2.92;;;;;;;14.34;63.69;101039.63;5000855;28;102672;-47
2022/05/04 04:58:11;;;;;;;;;;;;;;;14.35;63.68;101035.81;5007875;28;103962;-47
2022/05/04 05:00:38;;;;;;;3.28;2.92;;;;;;;14.35;63.65;101032.22;5012964;28;102426;-46
2022/05/04 05:03:06;;;;;;;4.10;3.10;;;;;;;14.35;63.51;101044.03;5009696;28;102413;-47
2022/05/04 05:05:33;;;;;;;3.85;3.28;;;;;;;14.35;63.51;101035.81;5001530;28;102171;-47
2022/05/04 05:08:00;;;;;;;3.80;3.15;;;;;;;14.36;63.46;101042.91;4994900;28;104044;-47
2022/05/04 05:10:31;;;;;;;4.70;3.53;;;;;;;14.36;63.44;101042.09;5004231;28;103024;-46
2022/05/04 05:12:58;;;;;;;3.92;3.47;;;;;;;14.36;63.52;101040.19;5004192;28;102469;-46
2022/05/04 05:18:12;;;;;;;2.95;2.45;;;;;;;14.38;63.55;101034.41;4992363;28;104415;-48
2022/05/04 05:20:39;;;;;;;3.03;2.72;;;;;;;14.38;63.47;101042.59;5009429;28;102548;-47
2022/05/04 05:23:11;;;;;;;5.68;3.10;;;;;;;14.39;63.87;101038.78;5003631;28;102053;-45
2022/05/04 05:25:38;;;;;;;3.20;2.90;;;;;;;14.39;63.48;101025.91;5007685;28;102105;-46
2022/05/04 05:28:05;;;;;;;4.40;3.15;;;;;;;14.41;63.65;101033.81;5007542;28;103958;-48
2022/05/04 05:30:32;;;;;;;3.30;3.00;;;;;;;14.39;63.69;101028.66;5011775;28;104262;-47
2022/05/04 05:32:58;;;;;;;3.45;2.80;;;;;;;14.41;63.63;101037.38;5004959;28;102273;-47
2022/05/04 05:35:26;;;;;;;3.00;2.70;;;;;;;14.41;63.63;101045.59;5006855;28;102555;-48
2022/05/04 05:37:54;;;;;;;3.45;2.67;;;;;;;14.42;63.64;101046.41;5015291;28;104067;-47
2022/05/04 05:40:21;;;;;;;2.95;2.65;;;;;;;14.42;63.58;101035.44;5019175;27;102446;-48
2022/05/04 05:42:47;;;;;;;3.85;2.95;;;;;;;14.42;63.78;101049.97;5011632;28;102418;-47
2022/05/04 05:45:14;;;;;;;3.53;2.60;;;;;;;14.42;64.02;101046.41;5013942;28;102769;-48
2022/05/04 05:47:40;;;;;;;4.13;3.15;;;;;;;14.43;63.65;101050.78;5011781;27;103866;-48
2022/05/04 05:50:08;;;;;;;3.45;3.10;;;;;;;14.43;63.67;101048.88;5010432;28;102942;-47
2022/05/04 05:52:36;;;;;;;3.22;2.92;;;;;;;14.43;63.60;101056.28;5012232;28;101963;-46
2022/05/04 05:55:03;;;;;;;3.78;2.90;;;;;;;14.42;63.66;101054.63;5009625;28;102783;-47
2022/05/04 05:57:29;;;;;;;3.72;2.92;;;;;;;14.44;63.99;101057.91;5008409;28;104117;-48
2022/05/04 05:59:56;;;;;;;3.00;2.80;;;;;;;14.43;64.01;101057.09;5011102;28;102662;-48
2022/05/04 06:02:27;;;;;;;3.03;2.83;;;;;;;14.43;63.81;101061.75;5010777;28;102424;-46
2022/05/04 06:04:56;;;;;;;3.50;3.10;;;;;;;14.43;63.88;101065.28;5015836;28;102505;-49
2022/05/04 06:07:23;;;;;;;3.50;3.20;;;;;;;14.44;63.97;101071.59;5008301;28;104188;-46
2022/05/04 06:10:00;;;;;;;4.20;3.08;;;;;;;14.43;63.79;101061.75;5010466;28;102635;-48
2022/05/04 06:12:27;;;;;;;2.53;2.33;;;;;;;14.44;64.18;101060.63;5004920;28;101986;-47
2022/05/04 06:14:53;;;;;;;3.30;3.00;;;;;;;14.44;63.88;101055.16;4993989;28;102513;-47
2022/05/04 06:17:20;;;;;;;3.40;3.10;;;;;;;14.44;63.79;101063.38;5001568;28;103832;-49
2022/05/04 06:19:47;;;;;;;3.10;2.80;;;;;;;14.45;63.87;101055.97;5008971;28;102522;-47
2022/05/04 06:22:13;;;;;;;2.67;2.47;;;;;;;14.46;63.75;101063.06;4995802;28;102472;-47
2022/05/04 06:24:40;;;;;;;2.95;2.65;;;;;;;14.46;63.86;101063.91;4992582;28;102650;-49
2022/05/04 06:27:08;;;;;;;3.20;2.85;;;;;;;14.47;63.76;101062.00;4993859;28;104030;-49
2022/05/04 06:35:06;;;;;;;2.60;2.40;;;;;;;14.49;63.64;101068.78;4992557;28;102326;-47
2022/05/04 06:37:33;;;;;;;2.77;2.57;;;;;;;14.50;64.01;101061.44;5004715;28;104075;-47
2022/05/04 06:40:01;;;;;;;3.05;2.70;;;;;;;14.50;63.74;101056.78;4993211;28;102446;-48
2022/05/04 06:42:29;;;;;;;2.90;2.70;;;;;;;14.51;63.83;101049.38;5003563;28;102330;-46
2022/05/04 06:44:56;;;;;;;2.70;2.50;;;;;;;14.50;63.96;101054.03;5012836;28;101925;-47
2022/05/04 06:47:22;;;;;;;3.40;2.50;;;;;;;14.52;63.62;101051.00;5010585;28;104227;-46
2022/05/04 06:49:49;;;;;;;2.63;2.42;;;;;;;14.52;64.08;101051.81;5008704;28;102146;-46
2022/05/04 06:52:15;;;;;;;3.20;2.90;;;;;;;14.52;63.54;101054.56;4999238;28;103225;-48
2022/05/04 06:54:42;;;;;;;2.75;2.55;;;;;;;14.52;63.94;101056.47;5001894;28;102577;-47
2022/05/04 06:57:08;;;;;;;3.25;2.78;;;;;;;14.53;63.81;101063.56;5002048;28;103965;-47
2022/05/04 06:59:38;;;;;;;3.25;2.72;;;;;;;14.53;63.63;101058.91;5007193;28;101844;-47
2022/05/04 07:02:04;;;;;;;2.60;2.40;;;;;;;14.53;63.78;101058.91;4992512;28;102033;-48
2022/05/04 07:04:31;;;;;;;3.28;2.80;;;;;;;14.54;63.80;101055.09;5001571;28;102134;-48
2022/05/04 07:06:58;;;;;;;3.00;2.70;;;;;;;14.53;63.81;101061.66;5011155;28;103894;-44
2022/05/04 07:09:24;;;;;;;3.30;2.88;;;;;;;14.55;63.98;101056.72;5010923;28;101906;-48
2022/05/04 07:11:51;;;;;;;3.33;2.30;;;;;;;14.55;63.82;101056.72;5000032;28;102087;-46
2022/05/04 07:14:17;;;;;;;2.78;2.58;;;;;;;14.56;63.76;101063.00;4992244;28;102724;-48
2022/05/04 07:16:46;;;;;;;2.83;2.63;;;;;;;14.56;63.91;101057.53;4990771;28;103909;-46
2022/05/04 07:19:13;;;;;;;;;;;;;;;14.55;64.01;101056.72;4992121;28;102243;-47
2022/05/04 07:21:40;;;;;;;5.45;2.60;;;;;;;14.55;63.89;101067.66;4990982;28;102148;-47
2022/05/04 07:24:07;;;;;;;3.58;2.80;;;;;;;14.56;63.79;101066.56;4992352;28;102022;-46
2022/05/04 07:26:35;;;;;;;3.05;2.75;;;;;;;14.56;63.92;101074.78;4994037;28;103871;-45
2022/05/04 07:29:03;;;;;;;4.78;2.67;;;;;;;14.56;63.81;101080.25;5001607;28;102478;-48
2022/05/04 07:31:29;;;;;;;2.60;2.40;;;;;;;14.55;63.89;101089.59;5009525;28;102380;-47
2022/05/04 07:33:57;;;;;;;3.45;2.83;;;;;;;14.55;63.96;101088.78;4999851;28;102113;-47
2022/05/04 07:36:24;;;;;;;3.53;2.78;;;;;;;14.56;63.84;101099.41;4996094;28;103852;-48
2022/05/04 07:38:51;;;;;;;3.53;2.70;;;;;;;14.55;64.14;101097.78;4999504;28;102622;-48
2022/05/04 07:44:03;;;;;;;3.08;2.78;;;;;;;14.54;64.06;101101.66;4992033;28;102053;-48
2022/05/04 07:46:30;;;;;;;3.20;2.90;;;;;;;14.54;63.79;101104.38;4999959;28;103985;-48
2022/05/04 07:48:57;;;;;;;3.30;3.00;;;;;;;14.53;63.95;101108.22;5010145;28;101946;-47
2022/05/04 07:51:24;;;;;;;4.35;3.00;;;;;;;14.54;63.95;101106.31;4990718;28;102155;-47
2022/05/04 07:53:50;;;;;;;3.20;2.90;;;;;;;14.53;63.93;101108.22;4992336;28;102317;-47
2022/05/04 07:56:17;;;;;;;3.20;2.90;;;;;;;14.53;63.96;101108.22;4992379;28;104021;-46
2022/05/04 07:58:44;;;;;;;4.70;2.60;;;;;;;14.52;63.95;101112.06;4995283;28;102437;-47
2022/05/04 08:04:16;;;;;;;2.70;2.50;;;;;;;14.52;64.00;101112.06;4995219;28;102045;-46
2022/05/04 08:06:42;;;;;;;2.85;2.40;;;;;;;14.53;64.41;101112.88;4993984;28;103945;-47
2022/05/04 08:09:09;;;;;;;2.90;2.70;;;;;;;14.52;64.30;101101.09;4994596;28;101752;-47
2022/05/04 08:11:41;;;;;;;2.92;2.65;;;;;;;14.53;64.33;101102.72;4999083;28;102486;-47
2022/05/04 08:14:08;;;;;;;3.22;2.72;;;;;;;14.52;64.19;101101.09;5012270;28;102646;-47
2022/05/04 08:16:35;;;;;;;3.30;3.00;;;;;;;14.52;64.21;101103.84;4999527;28;103654;-46
2022/05/04 08:19:03;;;;;;;3.05;2.72;;;;;;;14.52;64.13;101106.59;5014040;28;102419;-47
2022/05/04 08:21:34;;;;;;;3.97;3.08;;;;;;;14.52;64.17;101112.06;5002817;28;102000;-47
2022/05/04 08:24:01;;;;;;;4.75;3.20;;;;;;;14.53;64.07;101105.47;4994889;28;102203;-47
2022/05/04 08:26:27;;;;;;;2.85;2.65;;;;;;;14.52;64.12;101109.31;4993311;28;103893;-48
2022/05/04 08:28:54;;;;;;;3.17;2.95;;;;;;;14.52;64.06;101109.31;4994409;28;102244;-48
2022/05/04 08:31:21;;;;;;;3.33;3.03;;;;;;;14.54;64.02;101098.91;4992893;28;102229;-48
2022/05/04 08:33:48;;;;;;;5.40;3.15;;;;;;;14.53;64.06;101094.50;4994712;28;102112;-47
2022/05/04 08:36:16;;;;;;;3.38;3.08;;;;;;;14.54;63.81;101087.16;4993125;28;103857;-47
2022/05/04 08:38:43;;;;;;;3.80;2.97;;;;;;;14.54;63.82;101082.47;5008502;28;101934;-47
2022/05/04 08:41:10;;;;;;;3.10;2.80;;;;;;;14.54;63.97;101087.97;5009922;28;102191;-48
2022/05/04 08:43:39;;;;;;;3.30;3.00;;;;;;;14.55;64.08;101089.59;5011130;28;102126;-46
2022/05/04 08:46:12;;;;;;;2.90;2.63;;;;;;;14.56;63.80;101091.22;4996535;28;104069;-46
2022/05/04 08:48:40;;;;;;;3.25;2.70;;;;;;;14.57;64.08;101086.53;4994876;28;102072;-47
2022/05/04 08:51:07;;;;;;;2.78;2.55;;;;;;;14.58;64.11;101089.00;4996149;28;102445;-47
2022/05/04 08:53:38;;;;;;;2.75;2.55;;;;;;;14.59;63.95;101081.59;5002352;28;102087;-48
2022/05/04 08:56:05;;;;;;;2.70;2.50;;;;;;;14.60;64.08;101092.25;4999665;28;103959;-46
2022/05/04 08:58:34;;;;;;;2.80;2.50;;;;;;;14.60;63.84;101080.50;5005965;28;102848;-48
2022/05/04 09:01:02;;;;;;;2.72;2.35;;;;;;;14.62;64.08;101073.63;5012640;28;101937;-46
2022/05/04 09:03:29;;;;;;;2.80;2.60;;;;;;;14.61;63.98;101082.97;5008279;28;103889;-47
2022/05/04 09:05:56;;;;;;;3.33;2.33;;;;;;;14.63;64.04;101079.91;4993043;28;104062;-47
2022/05/04 09:08:23;;;;;;;3.38;2.70;;;;;;;14.63;63.68;101083.47;4993572;28;101976;-47
2022/05/04 09:10:51;;;;;;;3.88;2.42;;;;;;;14.65;63.92;101083.19;4992599;28;102523;-47
2022/05/04 09:13:18;;;;;;;3.10;2.80;;;;;;;14.65;64.20;101084.00;4996238;28;102644;-48
2022/05/04 09:15:45;;;;;;;2.90;2.60;;;;;;;14.65;63.93;101074.97;5012455;28;103822;-45
2022/05/04 09:18:16;;;;;;;3.05;2.72;;;;;;;14.66;64.01;101080.16;5013578;28;102489;-47
2022/05/04 09:20:47;;;;;;;2.88;2.67;;;;;;;14.68;63.95;101065.34;5012550;28;102554;-44
2022/05/04 09:23:17;;;;;;;3.50;3.20;;;;;;;14.69;63.93;101067.00;5012734;28;102072;-52
2022/05/04 09:25:44;;;;;;;3.97;2.80;;;;;;;14.68;63.81;101068.91;5012452;28;103907;-48
2022/05/04 09:28:14;;;;;;;3.15;2.83;;;;;;;14.68;63.84;101068.06;5012900;28;102060;-47
2022/05/04 09:30:46;;;;;;;2.65;2.45;;;;;;;14.70;63.92;101068.63;5011647;28;102578;-47
2022/05/04 09:33:17;;;;;;;3.67;2.70;;;;;;;14.69;64.16;101067.81;5011137;28;104030;-47
2022/05/04 09:35:45;;;;;;;4.80;2.80;;;;;;;14.69;64.23;101072.47;5011835;28;103953;-44
2022/05/04 09:46:39;;;;;;;3.40;2.63;;;;;;;14.70;64.03;101057.66;5011997;28;103994;-47
2022/05/04 09:49:15;;;;;;;3.37;2.97;;;;;;;14.70;63.90;101054.91;5011730;28;102347;-47
2022/05/04 09:51:44;;;;;;;2.80;2.60;;;;;;;14.70;63.75;101047.50;5012305;28;102309;-46
2022/05/04 09:54:16;;;;;;;3.00;2.80;;;;;;;14.71;63.88;101053.81;5013753;28;102211;-45
2022/05/04 09:56:49;;;;;;;2.85;2.65;;;;;;;14.72;63.90;101049.97;5010428;28;103844;-46
2022/05/04 09:59:19;;;;;;;3.22;2.92;;;;;;;14.73;63.78;101046.13;4997957;28;103616;-45
2022/05/04 10:01:47;;;;;;;2.13;1.98;;;;;;;14.73;64.01;101051.59;5010236;28;102597;-47
2022/05/04 10:04:15;;;;;;;4.10;2.53;;;;;;;14.73;64.27;101048.88;4993407;28;102194;-47
2022/05/04 10:06:44;;;;;;;3.20;2.90;;;;;;;14.73;63.88;101046.13;5006813;28;103884;-47
2022/05/04 10:09:13;;;;;;;2.80;2.55;;;;;;;14.74;64.04;101045.00;4992641;28;101854;-48
2022/05/04 10:11:40;;;;;;;2.92;2.72;;;;;;;14.74;63.82;101037.59;4991722;28;102682;-46
2022/05/04 10:14:09;;;;;;;2.72;2.53;;;;;;;14.75;64.20;101032.94;4993385;28;102193;-48
2022/05/04 10:16:43;;;;;;;2.97;2.67;;;;;;;14.75;63.97;101035.69;4994675;28;104040;-47
2022/05/04 10:19:15;;;;;;;3.30;3.00;;;;;;;14.75;64.21;101030.19;5008545;28;102001;-48
2022/05/04 10:21:43;;;;;;;2.67;2.47;;;;;;;14.76;63.89;101023.63;4999217;28;102509;-45
2022/05/04 10:24:10;;;;;;;2.85;2.65;;;;;;;14.76;64.18;101023.63;5001191;28;102662;-48
2022/05/04 10:26:38;;;;;;;4.30;2.90;;;;;;;14.77;63.85;101025.25;5020661;27;104412;-47
2022/05/04 10:32:31;;;;;;;3.47;2.70;;;;;;;14.76;64.23;101018.16;5006302;28;102050;-47
2022/05/04 10:35:14;;;;;;;2.75;2.55;;;;;;;14.77;64.16;101028.00;5011844;28;102677;-47
2022/05/04 10:38:03;;;;;;;2.70;2.50;;;;;;;14.76;63.88;101013.47;5009045;28;104103;-47
2022/05/04 10:40:33;;;;;;;2.95;2.70;;;;;;;14.77;64.21;101014.28;5008881;28;102332;-47
2022/05/04 10:43:02;;;;;;;2.78;2.58;;;;;;;14.76;64.10;101012.66;5007592;28;102370;-46
2022/05/04 10:45:30;;;;;;;2.95;2.63;;;;;;;14.76;63.89;100996.22;5010532;28;102391;-47
2022/05/04 10:48:35;;;;;;;2.70;2.50;;;;;;;14.77;63.88;100998.66;5007283;28;103919;-47
2022/05/04 10:51:12;;;;;;;2.88;2.42;;;;;;;14.77;64.24;100984.97;5002220;28;102327;-47
2022/05/04 10:53:41;;;;;;;2.83;2.55;;;;;;;14.77;64.24;100986.91;4996015;28;102375;-48
2022/05/04 10:56:08;;;;;;;;;;;;;;;14.78;64.20;100989.34;5004301;28;102675;-47
2022/05/04 10:58:38;;;;;;;3.03;2.72;;;;;;;14.78;64.12;100989.34;5004826;28;103998;-47
2022/05/04 11:01:08;;;;;;;2.88;2.67;;;;;;;14.77;64.02;100973.19;4996889;28;102011;-49
2022/05/04 11:03:36;;;;;;;2.88;2.67;;;;;;;14.77;64.25;100970.47;4990525;28;102628;-48
2022/05/04 11:06:09;;;;;;;3.05;2.72;;;;;;;14.78;63.92;100966.59;5005639;28;102788;-47
2022/05/04 11:08:45;;;;;;;3.20;2.90;;;;;;;14.78;64.00;100955.66;5010584;28;103968;-48
2022/05/04 11:11:13;;;;;;;3.00;2.80;;;;;;;14.77;64.10;100954.84;5009818;28;102367;-47
2022/05/04 11:13:43;;;;;;;3.17;2.97;;;;;;;14.77;63.91;100954.03;5010882;28;102421;-46
2022/05/04 11:16:09;;;;;;;2.90;2.70;;;;;;;14.78;63.96;100955.66;5009734;28;102157;-47
2022/05/04 11:18:36;;;;;;;2.67;2.47;;;;;;;14.77;63.91;100940.31;5004646;28;103598;-48
2022/05/04 11:21:05;;;;;;;2.88;2.67;;;;;;;14.77;64.02;100954.03;4994197;28;102473;-47
2022/05/04 11:23:36;;;;;;;;;;;;;;;14.78;64.19;100941.94;5004509;28;103817;-47
2022/05/04 11:26:02;;;;;;;3.85;2.60;;;;;;;14.78;64.15;100944.69;5001605;28;102221;-47
2022/05/04 11:28:29;;;;;;;3.13;2.83;;;;;;;14.78;64.25;100933.72;5005690;28;103830;-47
2022/05/04 11:30:56;;;;;;;3.30;3.00;;;;;;;14.77;63.97;100937.59;5010395;28;102426;-44
2022/05/04 11:33:22;;;;;;;3.40;3.10;;;;;;;14.77;64.32;100927.44;5012666;28;102213;-47
2022/05/04 11:35:56;;;;;;;2.58;2.38;;;;;;;14.79;64.00;100927.97;5009808;28;102229;-47
2022/05/04 11:38:22;;;;;;;2.90;2.70;;;;;;;14.78;63.94;100922.75;4994042;28;103952;-48
2022/05/04 11:40:50;;;;;;;2.92;2.72;;;;;;;14.77;64.56;100918.41;4994771;28;102231;-45
2022/05/04 11:43:27;;;;;;;3.20;2.70;;;;;;;14.77;64.30;100921.16;4994059;28;102244;-46
2022/05/04 11:45:54;;;;;;;2.95;2.58;;;;;;;14.77;64.24;100919.22;5003221;28;102030;-46
2022/05/04 11:48:21;;;;;;;4.25;3.17;;;;;;;14.78;64.15;100911.81;5013660;28;103853;-48
2022/05/04 11:50:48;;;;;;;3.20;2.90;;;;;;;14.78;64.38;100906.31;5014509;28;102125;-47
2022/05/04 11:53:14;;;;;;;3.25;2.75;;;;;;;14.79;64.27;100902.50;5013609;28;102456;-46
2022/05/04 11:55:41;;;;;;;3.25;2.92;;;;;;;14.77;64.15;100905.53;5014691;28;102214;-46